createdAt,value
2022-10-18T00:04:50.613Z,100.00
2022-10-18T00:09:52.449Z,100.00
2022-10-18T00:14:54.146Z,100.00
2022-10-18T00:19:55.821Z,100.00
2022-10-18T00:24:57.522Z,100.00
2022-10-18T00:29:59.369Z,100.00
2022-10-18T00:35:01.018Z,100.00
2022-10-18T00:40:02.772Z,100.00
2022-10-18T00:45:07.555Z,100.00
2022-10-18T00:50:10.394Z,100.00
2022-10-18T00:55:12.645Z,100.00
2022-10-18T01:00:14.888Z,100.00
2022-10-18T01:05:18.960Z,100.00
2022-10-18T01:10:33.534Z,100.00
2022-10-18T01:15:45.460Z,100.00
2022-10-18T01:21:20.257Z,100.00
2022-10-18T01:26:53.142Z,100.00
2022-10-18T01:32:02.552Z,100.00
2022-10-18T01:37:09.424Z,100.00
2022-10-18T01:42:14.739Z,100.00
2022-10-18T01:47:17.321Z,100.00
2022-10-18T01:52:19.119Z,100.00
2022-10-18T01:57:41.654Z,100.00
2022-10-18T02:02:55.480Z,100.00
2022-10-18T02:08:22.123Z,100.00
2022-10-18T02:13:30.643Z,100.00
2022-10-18T02:18:46.887Z,100.00
2022-10-18T02:23:49.041Z,100.00
2022-10-18T02:28:51.595Z,100.00
2022-10-18T02:34:32.197Z,100.00
2022-10-18T02:39:36.779Z,100.00
2022-10-18T02:44:39.221Z,100.00
2022-10-18T02:49:40.858Z,100.00
2022-10-18T02:54:42.519Z,100.00
2022-10-18T02:59:44.218Z,100.00
2022-10-18T03:04:45.876Z,100.00
2022-10-18T03:09:47.562Z,100.00
2022-10-18T03:14:49.252Z,100.00
2022-10-18T03:19:50.946Z,100.00
2022-10-18T03:24:53.119Z,100.00
2022-10-18T03:29:54.844Z,100.00
2022-10-18T03:34:56.572Z,100.00
2022-10-18T03:39:58.233Z,100.00
2022-10-18T03:44:59.972Z,100.00
2022-10-18T03:50:01.712Z,100.00
2022-10-18T03:55:04.021Z,100.00
2022-10-18T04:00:06.445Z,100.00
2022-10-18T04:05:14.202Z,100.00
2022-10-18T04:10:16.571Z,100.00
2022-10-18T04:15:18.224Z,100.00
2022-10-18T04:20:19.891Z,100.00
2022-10-18T04:25:22.339Z,100.00
2022-10-18T04:30:24.023Z,100.00
2022-10-18T04:35:26.165Z,100.00
2022-10-18T04:40:27.816Z,100.00
2022-10-18T04:45:29.519Z,100.00
2022-10-18T04:50:31.246Z,100.00
2022-10-18T04:55:32.919Z,100.00
2022-10-18T05:00:39.809Z,100.00
2022-10-18T05:06:00.803Z,100.00
2022-10-18T05:11:03.929Z,100.00
2022-10-18T05:16:05.996Z,100.00
2022-10-18T05:21:07.676Z,100.00
2022-10-18T05:26:09.653Z,100.00
2022-10-18T05:31:11.917Z,100.00
2022-10-18T05:36:13.639Z,100.00
2022-10-18T05:41:15.373Z,100.00
2022-10-18T05:46:17.352Z,100.00
2022-10-18T05:51:19.970Z,100.00
2022-10-18T05:56:22.091Z,100.00
2022-10-18T06:01:24.347Z,100.00
2022-10-18T06:06:28.412Z,100.00
2022-10-18T06:11:31.274Z,100.00
2022-10-18T06:16:33.167Z,100.00
2022-10-18T06:21:35.126Z,100.00
2022-10-18T06:26:37.538Z,100.00
2022-10-18T06:31:39.900Z,100.00
2022-10-18T06:36:41.785Z,100.00
2022-10-18T06:41:44.910Z,100.00
2022-10-18T06:46:55.889Z,100.00
2022-10-18T06:51:57.842Z,100.00
2022-10-18T06:57:02.667Z,100.00
2022-10-18T07:02:04.493Z,100.00
2022-10-18T07:07:06.802Z,100.00
2022-10-18T07:12:09.116Z,100.00
2022-10-18T07:17:11.559Z,100.00
2022-10-18T07:22:13.646Z,100.00
2022-10-18T07:27:15.358Z,100.00
2022-10-18T07:32:17.023Z,100.00
2022-10-18T07:37:18.737Z,100.00
2022-10-18T07:42:20.473Z,100.00
2022-10-18T07:47:22.165Z,100.00
2022-10-18T07:52:25.668Z,100.00
2022-10-18T07:57:28.203Z,100.00
2022-10-18T08:02:29.864Z,99.02
2022-10-18T08:07:33.798Z,100.00
2022-10-18T08:12:35.729Z,99.49
2022-10-18T08:17:37.893Z,100.00
2022-10-18T08:22:39.793Z,100.00
2022-10-18T08:27:41.471Z,100.00
2022-10-18T08:32:43.341Z,100.00
2022-10-18T08:37:45.495Z,98.00
2022-10-18T08:42:54.790Z,95.50
2022-10-18T08:47:57.915Z,94.99
2022-10-18T08:53:21.799Z,97.54
2022-10-18T08:58:26.835Z,96.58
2022-10-18T09:04:09.557Z,98.44
2022-10-18T09:09:20.336Z,100.00
2022-10-18T09:14:47.003Z,98.87
2022-10-18T09:20:28.843Z,96.24
2022-10-18T09:25:37.493Z,94.59
2022-10-18T09:30:59.465Z,91.79
2022-10-18T09:36:05.134Z,94.90
2022-10-18T09:41:19.181Z,94.90
2022-10-18T09:46:24.925Z,95.25
2022-10-18T09:51:38.866Z,96.25
2022-10-18T09:56:48.885Z,93.23
2022-10-18T10:01:50.558Z,91.10
2022-10-18T10:06:54.801Z,89.60
2022-10-18T10:11:57.742Z,84.30
2022-10-18T10:17:20.755Z,82.49
2022-10-18T10:22:37.217Z,82.93
2022-10-18T10:27:45.946Z,83.81
2022-10-18T10:32:49.719Z,86.67
2022-10-18T10:37:53.358Z,89.48
2022-10-18T10:43:12.735Z,94.72
2022-10-18T10:48:19.463Z,97.74
2022-10-18T10:53:39.637Z,99.70
2022-10-18T10:58:41.633Z,100.00
2022-10-18T11:03:51.784Z,100.00
2022-10-18T11:08:54.301Z,100.00
2022-10-18T11:14:25.421Z,100.00
2022-10-18T11:19:55.148Z,100.00
2022-10-18T11:24:56.825Z,100.00
2022-10-18T11:30:07.760Z,100.00
2022-10-18T11:35:23.544Z,100.00
2022-10-18T11:40:30.911Z,100.00
2022-10-18T11:46:04.001Z,100.00
2022-10-18T11:51:33.994Z,100.00
2022-10-18T11:57:02.070Z,100.00
2022-10-18T12:02:42.351Z,100.00
2022-10-18T12:07:53.165Z,100.00
2022-10-18T12:13:02.812Z,100.00
2022-10-18T12:18:14.981Z,100.00
2022-10-18T12:23:18.376Z,100.00
2022-10-18T12:28:34.014Z,100.00
2022-10-18T12:33:42.717Z,100.00
2022-10-18T12:38:48.049Z,100.00
2022-10-18T12:44:20.619Z,100.00
2022-10-18T12:49:30.213Z,100.00
2022-10-18T12:54:34.560Z,100.00
2022-10-18T12:59:36.173Z,100.00
2022-10-18T13:04:38.363Z,100.00
2022-10-18T13:10:12.854Z,100.00
2022-10-18T13:15:36.501Z,100.00
2022-10-18T13:20:38.091Z,100.00
2022-10-18T13:26:44.222Z,100.00
2022-10-18T13:32:05.596Z,100.00
2022-10-18T13:37:10.042Z,100.00
2022-10-18T13:42:14.486Z,100.00
2022-10-18T13:47:33.956Z,100.00
2022-10-18T13:52:59.066Z,100.00
2022-10-18T13:58:14.624Z,100.00
2022-10-18T14:04:01.942Z,100.00
2022-10-18T14:09:25.503Z,100.00
2022-10-18T14:14:59.780Z,100.00
2022-10-18T14:20:13.624Z,100.00
2022-10-18T14:25:26.973Z,100.00
2022-10-18T14:30:28.620Z,100.00
2022-10-18T14:35:35.287Z,100.00
2022-10-18T14:40:40.661Z,100.00
2022-10-18T14:45:42.867Z,100.00
2022-10-18T14:50:47.315Z,100.00
2022-10-18T14:55:56.575Z,100.00
2022-10-18T15:00:59.542Z,100.00
2022-10-18T15:06:05.197Z,100.00
2022-10-18T15:11:10.550Z,100.00
2022-10-18T15:16:20.711Z,100.00
2022-10-18T15:21:24.277Z,100.00
2022-10-18T15:26:30.100Z,100.00
2022-10-18T15:31:34.997Z,100.00
2022-10-18T15:36:37.859Z,100.00
2022-10-18T15:41:55.930Z,100.00
2022-10-18T15:47:30.195Z,100.00
2022-10-18T15:52:39.005Z,100.00
2022-10-18T15:57:41.106Z,100.00
2022-10-18T16:02:42.807Z,100.00
2022-10-18T16:07:44.458Z,100.00
2022-10-18T16:12:46.475Z,100.00
2022-10-18T16:17:49.492Z,100.00
2022-10-18T16:22:51.144Z,100.00
2022-10-18T16:27:52.841Z,100.00
2022-10-18T16:32:54.491Z,100.00
2022-10-18T16:37:56.239Z,100.00
2022-10-18T16:42:57.923Z,100.00
2022-10-18T16:47:59.598Z,100.00
2022-10-18T16:53:01.255Z,100.00
2022-10-18T16:58:03.056Z,100.00
2022-10-18T17:03:04.690Z,100.00
2022-10-18T17:08:06.768Z,100.00
2022-10-18T17:13:08.483Z,100.00
2022-10-18T17:18:19.265Z,100.00
2022-10-18T17:23:20.937Z,100.00
2022-10-18T17:28:22.639Z,100.00
2022-10-18T17:33:24.290Z,100.00
2022-10-18T17:38:25.933Z,100.00
2022-10-18T17:43:28.872Z,100.00
2022-10-18T17:48:30.648Z,100.00
2022-10-18T17:53:32.948Z,100.00
2022-10-18T17:58:35.511Z,100.00
2022-10-18T18:03:37.331Z,100.00
2022-10-18T18:08:38.985Z,100.00
2022-10-18T18:13:41.531Z,100.00
2022-10-18T18:18:43.894Z,100.00
2022-10-18T18:23:46.059Z,100.00
2022-10-18T18:28:49.324Z,100.00
2022-10-18T18:33:52.763Z,100.00
2022-10-18T18:38:57.076Z,100.00
2022-10-18T18:44:02.322Z,100.00
2022-10-18T18:49:05.343Z,100.00
2022-10-18T18:54:08.732Z,100.00
2022-10-18T18:59:14.605Z,100.00
2022-10-18T19:04:17.021Z,100.00
2022-10-18T19:09:20.619Z,100.00
2022-10-18T19:14:25.138Z,100.00
2022-10-18T19:19:29.734Z,100.00
2022-10-18T19:24:32.120Z,100.00
2022-10-18T19:29:35.928Z,100.00
2022-10-18T19:34:37.775Z,100.00
2022-10-18T19:39:39.602Z,100.00
2022-10-18T19:44:42.187Z,100.00
2022-10-18T19:49:44.273Z,100.00
2022-10-18T19:54:48.502Z,100.00
2022-10-18T19:59:50.487Z,100.00
2022-10-18T20:04:52.157Z,100.00
2022-10-18T20:09:53.811Z,100.00
2022-10-18T20:14:55.492Z,100.00
2022-10-18T20:19:57.219Z,100.00
2022-10-18T20:24:58.870Z,100.00
2022-10-18T20:30:00.529Z,100.00
2022-10-18T20:35:02.175Z,100.00
2022-10-18T20:40:04.092Z,100.00
2022-10-18T20:45:10.587Z,100.00
2022-10-18T20:50:12.315Z,100.00
2022-10-18T20:55:14.030Z,100.00
2022-10-18T21:00:15.854Z,100.00
2022-10-18T21:05:18.386Z,100.00
2022-10-18T21:10:20.065Z,100.00
2022-10-18T21:15:21.743Z,100.00
2022-10-18T21:20:23.396Z,100.00
2022-10-18T21:25:25.092Z,100.00
2022-10-18T21:30:26.786Z,100.00
2022-10-18T21:35:28.427Z,100.00
2022-10-18T21:40:30.622Z,100.00
2022-10-18T21:45:32.268Z,100.00
2022-10-18T21:50:34.296Z,100.00
2022-10-18T21:55:36.208Z,100.00
2022-10-18T22:00:39.281Z,100.00
2022-10-18T22:05:40.967Z,100.00
2022-10-18T22:10:42.619Z,100.00
2022-10-18T22:15:44.267Z,100.00
2022-10-18T22:21:00.802Z,100.00
2022-10-18T22:26:07.715Z,100.00
2022-10-18T22:31:18.067Z,100.00
2022-10-18T22:36:19.723Z,100.00
2022-10-18T22:41:21.800Z,100.00
2022-10-18T22:46:23.513Z,100.00
2022-10-18T22:51:25.678Z,100.00
2022-10-18T22:56:27.368Z,100.00
2022-10-18T23:01:29.049Z,100.00
2022-10-18T23:06:36.159Z,100.00
2022-10-18T23:11:38.224Z,100.00
2022-10-18T23:16:39.879Z,100.00
2022-10-18T23:21:41.838Z,100.00
2022-10-18T23:26:43.507Z,100.00
2022-10-18T23:31:45.201Z,100.00
2022-10-18T23:36:47.006Z,100.00
2022-10-18T23:41:48.679Z,100.00
2022-10-18T23:46:50.331Z,100.00
2022-10-18T23:51:51.990Z,100.00
2022-10-18T23:56:53.623Z,100.00
